createdAt,value
2019-02-07T00:02:26.509Z,40.67
2019-02-07T00:04:53.464Z,38.97
2019-02-07T00:07:21.369Z,38.27
2019-02-07T00:09:47.926Z,38.47
2019-02-07T00:12:14.584Z,36.27
2019-02-07T00:14:41.384Z,35.87
2019-02-07T00:17:08.159Z,33.90
2019-02-07T00:19:34.743Z,32.63
2019-02-07T00:22:01.379Z,33.80
2019-02-07T00:24:27.917Z,33.83
2019-02-07T00:26:54.493Z,32.37
2019-02-07T00:29:21.069Z,30.87
2019-02-07T00:31:47.691Z,31.23
2019-02-07T00:34:14.339Z,31.10
2019-02-07T00:37:37.380Z,31.63
2019-02-07T00:40:09.106Z,32.37
2019-02-07T00:42:35.848Z,31.60
2019-02-07T00:45:07.592Z,29.67
2019-02-07T00:47:34.265Z,30.30
2019-02-07T00:50:01.003Z,29.43
2019-02-07T00:52:27.583Z,29.67
2019-02-07T00:54:54.155Z,29.27
2019-02-07T00:57:20.750Z,29.00
2019-02-07T00:59:47.317Z,28.63
2019-02-07T01:02:14.298Z,27.53
2019-02-07T01:04:40.943Z,29.47
2019-02-07T01:07:07.519Z,29.97
2019-02-07T01:09:34.198Z,28.90
2019-02-07T01:12:00.809Z,29.73
2019-02-07T01:14:27.476Z,28.30
2019-02-07T01:16:54.042Z,29.57
2019-02-07T01:19:20.685Z,29.77
2019-02-07T01:21:47.739Z,29.13
2019-02-07T01:24:14.408Z,31.37
2019-02-07T01:26:41.094Z,28.53
2019-02-07T01:29:07.728Z,28.13
2019-02-07T01:31:34.386Z,28.97
2019-02-07T01:34:01.014Z,28.30
2019-02-07T01:36:27.634Z,27.63
2019-02-07T01:38:54.213Z,28.57
2019-02-07T01:41:20.895Z,27.43
2019-02-07T01:43:47.460Z,27.83
2019-02-07T01:46:14.086Z,27.90
2019-02-07T01:48:40.687Z,25.57
2019-02-07T01:51:07.373Z,27.17
2019-02-07T01:53:34.321Z,26.60
2019-02-07T01:56:00.870Z,25.03
2019-02-07T01:58:27.462Z,25.90
2019-02-07T02:00:54.287Z,24.47
2019-02-07T02:03:21.140Z,24.97
2019-02-07T02:05:47.710Z,24.13
2019-02-07T02:08:14.344Z,24.43
2019-02-07T02:10:41.030Z,24.20
2019-02-07T02:13:07.760Z,23.40
2019-02-07T02:15:34.317Z,22.10
2019-02-07T02:18:00.911Z,20.63
2019-02-07T02:20:27.510Z,22.33
2019-02-07T02:22:54.575Z,20.80
2019-02-07T02:25:21.169Z,18.50
2019-02-07T02:27:47.727Z,20.80
2019-02-07T02:30:20.050Z,20.53
2019-02-07T02:32:46.675Z,18.23
2019-02-07T02:35:13.275Z,19.23
2019-02-07T02:37:40.216Z,20.53
2019-02-07T02:40:09.631Z,18.13
2019-02-07T02:42:36.261Z,18.20
2019-02-07T02:45:08.625Z,19.90
2019-02-07T02:47:35.307Z,18.97
2019-02-07T02:50:09.356Z,17.40
2019-02-07T02:52:36.265Z,19.67
2019-02-07T02:55:04.824Z,20.10
2019-02-07T02:57:31.388Z,20.03
2019-02-07T02:59:58.093Z,18.33
2019-02-07T03:02:26.693Z,18.77
2019-02-07T03:04:55.199Z,18.53
2019-02-07T03:07:23.753Z,19.17
2019-02-07T03:09:52.396Z,19.87
2019-02-07T03:12:20.943Z,21.03
2019-02-07T03:14:49.415Z,18.30
2019-02-07T03:17:17.994Z,18.93
2019-02-07T03:19:46.483Z,19.30
2019-02-07T03:22:15.074Z,20.20
2019-02-07T03:24:44.103Z,20.03
2019-02-07T03:27:12.678Z,20.03
2019-02-07T03:29:41.168Z,18.40
2019-02-07T03:32:09.833Z,19.13
2019-02-07T03:34:38.302Z,18.43
2019-02-07T03:37:06.862Z,19.93
2019-02-07T03:39:35.545Z,20.17
2019-02-07T03:42:04.121Z,19.17
2019-02-07T03:44:32.601Z,19.80
2019-02-07T03:47:01.109Z,19.17
2019-02-07T03:49:29.612Z,19.47
2019-02-07T03:51:58.095Z,18.50
2019-02-07T03:54:26.688Z,19.70
2019-02-07T03:56:55.337Z,18.83
2019-02-07T03:59:23.847Z,19.07
2019-02-07T04:01:50.417Z,19.00
2019-02-07T04:04:18.895Z,18.20
2019-02-07T04:06:47.518Z,18.53
2019-02-07T04:09:15.987Z,18.40
2019-02-07T04:11:45.403Z,18.53
2019-02-07T04:14:13.952Z,19.03
2019-02-07T04:16:42.651Z,18.43
2019-02-07T04:19:11.186Z,17.63
2019-02-07T04:21:39.749Z,17.07
2019-02-07T04:24:08.227Z,17.40
2019-02-07T04:26:36.883Z,18.80
2019-02-07T04:29:05.347Z,19.03
2019-02-07T04:31:33.848Z,17.23
2019-02-07T04:34:02.384Z,18.93
2019-02-07T04:36:31.974Z,19.07
2019-02-07T04:39:00.437Z,20.07
2019-02-07T04:41:30.060Z,22.17
2019-02-07T04:43:56.586Z,20.70
2019-02-07T04:46:27.343Z,21.00
2019-02-07T04:48:56.223Z,19.50
2019-02-07T04:51:24.765Z,19.00
2019-02-07T04:53:53.346Z,20.83
2019-02-07T04:56:21.828Z,19.77
2019-02-07T04:58:50.728Z,21.43
2019-02-07T05:01:19.266Z,19.43
2019-02-07T05:03:47.899Z,21.07
2019-02-07T05:06:16.530Z,21.47
2019-02-07T05:08:45.071Z,20.50
2019-02-07T05:11:14.080Z,21.07
2019-02-07T05:13:43.234Z,20.83
2019-02-07T05:16:11.727Z,19.70
2019-02-07T05:18:40.237Z,21.37
2019-02-07T05:21:08.797Z,20.70
2019-02-07T05:23:37.370Z,21.43
2019-02-07T05:26:05.937Z,21.00
2019-02-07T05:28:34.441Z,21.63
2019-02-07T05:31:03.643Z,20.43
2019-02-07T05:33:32.127Z,23.57
2019-02-07T05:36:00.614Z,23.53
2019-02-07T05:38:29.163Z,22.43
2019-02-07T05:40:57.619Z,22.03
2019-02-07T05:43:26.195Z,22.47
2019-02-07T05:45:54.417Z,22.27
2019-02-07T05:48:22.859Z,21.27
2019-02-07T05:50:51.333Z,21.97
2019-02-07T05:53:20.008Z,22.00
2019-02-07T05:55:48.681Z,22.80
2019-02-07T05:58:17.279Z,22.23
2019-02-07T06:00:47.143Z,24.30
2019-02-07T06:03:15.632Z,23.97
2019-02-07T06:05:44.237Z,24.67
2019-02-07T06:08:12.712Z,23.33
2019-02-07T06:10:41.265Z,22.23
2019-02-07T06:13:09.897Z,24.17
2019-02-07T06:15:38.787Z,24.13
2019-02-07T06:18:07.924Z,22.57
2019-02-07T06:20:36.575Z,23.87
2019-02-07T06:23:05.474Z,24.77
2019-02-07T06:25:33.969Z,23.97
2019-02-07T06:28:02.541Z,25.37
2019-02-07T06:30:31.021Z,25.57
2019-02-07T06:33:00.196Z,25.27
2019-02-07T06:35:28.843Z,26.87
2019-02-07T06:37:57.391Z,26.70
2019-02-07T06:40:25.968Z,26.03
2019-02-07T06:42:54.508Z,24.60
2019-02-07T06:45:23.053Z,25.13
2019-02-07T06:47:51.574Z,27.23
2019-02-07T06:50:20.058Z,25.37
2019-02-07T06:52:48.534Z,25.47
2019-02-07T06:55:17.048Z,25.23
2019-02-07T06:57:45.748Z,25.33
2019-02-07T07:00:15.303Z,24.93
2019-02-07T07:02:44.141Z,25.87
2019-02-07T07:05:16.257Z,24.57
2019-02-07T07:07:45.009Z,25.07
2019-02-07T07:10:13.925Z,25.83
2019-02-07T07:12:42.394Z,26.63
2019-02-07T07:15:11.755Z,27.13
2019-02-07T07:17:40.326Z,24.87
2019-02-07T07:20:12.226Z,26.83
2019-02-07T07:22:40.757Z,26.13
2019-02-07T07:25:09.232Z,26.53
2019-02-07T07:27:37.737Z,27.97
2019-02-07T07:30:11.909Z,26.43
2019-02-07T07:32:40.356Z,26.63
2019-02-07T07:35:10.750Z,25.33
2019-02-07T07:37:39.276Z,27.17
2019-02-07T07:40:12.815Z,25.60
2019-02-07T07:42:41.338Z,25.47
2019-02-07T07:45:15.632Z,24.23
2019-02-07T07:47:44.218Z,24.27
2019-02-07T07:50:12.824Z,25.17
2019-02-07T07:52:41.368Z,25.10
2019-02-07T07:55:09.932Z,24.00
2019-02-07T07:57:38.420Z,23.80
2019-02-07T08:00:12.870Z,21.83
2019-02-07T08:02:41.420Z,23.53
2019-02-07T08:05:10.045Z,22.30
2019-02-07T08:07:38.581Z,22.27
2019-02-07T08:10:11.953Z,23.03
2019-02-07T08:12:40.643Z,22.50
2019-02-07T08:15:13.710Z,22.50
2019-02-07T08:17:47.443Z,20.83
2019-02-07T08:20:12.759Z,20.57
2019-02-07T08:22:41.246Z,22.13
2019-02-07T08:25:10.423Z,21.90
2019-02-07T08:27:39.493Z,20.87
2019-02-07T08:30:11.336Z,22.13
2019-02-07T08:32:39.851Z,21.60
2019-02-07T08:35:08.437Z,21.00
2019-02-07T08:37:36.940Z,20.80
2019-02-07T08:40:10.904Z,19.53
2019-02-07T08:42:39.448Z,20.23
2019-02-07T08:45:10.884Z,17.77
2019-02-07T08:47:39.512Z,19.60
2019-02-07T08:50:11.687Z,20.00
2019-02-07T08:52:40.212Z,19.87
2019-02-07T08:55:09.279Z,19.57
2019-02-07T08:57:37.815Z,19.43
2019-02-07T09:00:12.064Z,18.93
2019-02-07T09:02:51.334Z,19.30
2019-02-07T09:05:11.126Z,19.23
2019-02-07T09:07:39.694Z,17.50
2019-02-07T09:10:14.595Z,19.00
2019-02-07T09:12:43.231Z,18.07
2019-02-07T09:15:11.903Z,19.23
2019-02-07T09:17:40.487Z,19.40
2019-02-07T09:20:11.940Z,18.93
2019-02-07T09:22:41.321Z,17.60
2019-02-07T09:25:09.838Z,18.37
2019-02-07T09:27:38.393Z,19.40
2019-02-07T09:30:12.657Z,18.20
2019-02-07T09:32:41.395Z,17.87
2019-02-07T09:35:09.980Z,16.20
2019-02-07T09:37:39.141Z,17.73
2019-02-07T09:40:10.302Z,16.57
2019-02-07T09:42:38.854Z,17.23
2019-02-07T09:45:13.113Z,17.23
2019-02-07T09:47:40.154Z,17.10
2019-02-07T09:50:09.677Z,17.17
2019-02-07T09:52:38.131Z,16.87
2019-02-07T09:55:10.797Z,16.77
2019-02-07T09:57:39.371Z,16.50
2019-02-07T10:00:13.604Z,15.63
2019-02-07T10:02:42.093Z,16.27
2019-02-07T10:05:12.941Z,16.50
2019-02-07T10:07:41.434Z,15.33
2019-02-07T10:10:11.766Z,14.67
2019-02-07T10:12:40.473Z,14.13
2019-02-07T10:15:09.364Z,14.53
2019-02-07T10:17:38.009Z,16.07
2019-02-07T10:20:09.754Z,15.37
2019-02-07T10:22:38.266Z,14.87
2019-02-07T10:25:06.755Z,14.63
2019-02-07T10:27:35.337Z,15.83
2019-02-07T10:30:08.267Z,14.83
2019-02-07T10:32:36.834Z,14.87
2019-02-07T10:35:09.605Z,14.53
2019-02-07T10:37:38.151Z,13.90
2019-02-07T10:40:12.410Z,12.77
2019-02-07T10:42:40.975Z,13.20
2019-02-07T10:45:14.400Z,14.47
2019-02-07T10:47:43.237Z,13.67
2019-02-07T10:50:12.919Z,13.80
2019-02-07T10:52:41.362Z,14.20
2019-02-07T10:55:09.865Z,13.27
2019-02-07T10:57:38.450Z,13.33
2019-02-07T11:00:12.652Z,12.00
2019-02-07T11:02:39.297Z,15.07
2019-02-07T11:05:12.085Z,13.37
2019-02-07T11:07:40.752Z,12.87
2019-02-07T11:10:14.410Z,12.00
2019-02-07T11:12:43.082Z,13.77
2019-02-07T11:15:14.228Z,14.07
2019-02-07T11:17:42.722Z,12.70
2019-02-07T11:20:16.383Z,11.97
2019-02-07T11:22:45.161Z,13.17
2019-02-07T11:25:13.742Z,12.43
2019-02-07T11:27:42.510Z,13.53
2019-02-07T11:30:16.446Z,12.57
2019-02-07T11:32:45.237Z,13.83
2019-02-07T11:35:11.917Z,12.57
2019-02-07T11:37:40.584Z,13.83
2019-02-07T11:40:12.916Z,12.43
2019-02-07T11:42:42.194Z,12.57
2019-02-07T11:45:14.394Z,12.23
2019-02-07T11:47:42.970Z,12.43
2019-02-07T11:50:11.487Z,13.10
2019-02-07T11:52:40.031Z,13.73
2019-02-07T11:55:08.865Z,12.73
2019-02-07T11:57:37.812Z,12.07
2019-02-07T12:00:12.174Z,12.27
2019-02-07T12:02:38.988Z,11.33
2019-02-07T12:05:10.587Z,11.10
2019-02-07T12:07:39.278Z,11.37
2019-02-07T12:10:10.378Z,11.80
2019-02-07T12:12:38.938Z,11.13
2019-02-07T12:15:10.797Z,11.10
2019-02-07T12:17:39.490Z,11.63
2019-02-07T12:20:12.543Z,11.43
2019-02-07T12:22:42.865Z,10.23
2019-02-07T12:25:11.588Z,18.40
2019-02-07T12:27:40.114Z,12.63
2019-02-07T12:31:04.679Z,12.43
2019-02-07T12:33:33.285Z,14.47
2019-02-07T12:36:01.869Z,11.83
2019-02-07T12:38:39.165Z,13.53
2019-02-07T12:41:08.756Z,12.13
2019-02-07T12:43:37.433Z,14.83
2019-02-07T12:46:06.019Z,13.73
2019-02-07T12:48:34.535Z,15.30
2019-02-07T12:51:03.064Z,14.37
2019-02-07T12:53:31.702Z,12.00
2019-02-07T12:56:00.260Z,12.87
2019-02-07T12:58:28.780Z,11.57
2019-02-07T13:00:57.362Z,13.73
2019-02-07T13:03:25.911Z,12.97
2019-02-07T13:05:54.494Z,14.37
2019-02-07T13:08:22.986Z,14.10
2019-02-07T13:10:51.598Z,16.97
2019-02-07T13:13:20.471Z,13.63
2019-02-07T13:16:46.823Z,13.47
2019-02-07T13:19:15.421Z,14.80
2019-02-07T13:21:44.089Z,13.57
2019-02-07T13:24:12.667Z,13.40
2019-02-07T13:26:41.267Z,14.37
2019-02-07T13:29:10.060Z,13.73
2019-02-07T13:31:39.189Z,13.43
2019-02-07T13:34:07.964Z,13.97
2019-02-07T13:36:36.626Z,14.77
2019-02-07T13:39:07.869Z,14.67
2019-02-07T13:41:36.640Z,14.97
2019-02-07T13:44:05.925Z,15.47
2019-02-07T13:46:35.204Z,15.13
2019-02-07T13:49:03.702Z,15.63
2019-02-07T13:51:32.339Z,13.87
2019-02-07T13:54:00.911Z,15.47
2019-02-07T13:56:29.509Z,14.40
2019-02-07T13:58:58.156Z,14.20
2019-02-07T14:01:27.312Z,12.67
2019-02-07T14:03:55.789Z,14.83
2019-02-07T14:06:24.348Z,13.40
2019-02-07T14:08:52.885Z,13.90
2019-02-07T14:11:21.420Z,11.67
2019-02-07T14:13:49.961Z,10.70
2019-02-07T14:16:19.421Z,12.10
2019-02-07T14:18:48.085Z,10.37
2019-02-07T14:21:16.740Z,12.23
2019-02-07T14:23:45.449Z,11.63
2019-02-07T14:26:14.035Z,10.20
2019-02-07T14:28:42.566Z,10.60
2019-02-07T14:31:11.150Z,9.47
2019-02-07T14:33:39.683Z,9.97
2019-02-07T14:36:08.211Z,10.83
2019-02-07T14:38:36.830Z,10.10
2019-02-07T14:41:05.452Z,10.43
2019-02-07T14:43:33.985Z,10.77
2019-02-07T14:46:02.523Z,10.83
2019-02-07T14:48:29.403Z,10.83
2019-02-07T14:50:56.046Z,9.77
2019-02-07T14:53:22.675Z,9.80
2019-02-07T14:55:49.310Z,10.03
2019-02-07T14:58:16.050Z,9.37
2019-02-07T15:00:42.860Z,10.33
2019-02-07T15:03:09.511Z,9.60
2019-02-07T15:05:36.129Z,10.50
2019-02-07T15:08:03.196Z,10.20
2019-02-07T15:10:29.841Z,9.67
2019-02-07T15:12:56.586Z,10.97
2019-02-07T15:15:23.322Z,9.97
2019-02-07T15:17:49.993Z,9.60
2019-02-07T15:20:25.722Z,11.23
2019-02-07T15:22:45.161Z,10.67
2019-02-07T15:25:12.217Z,10.30
2019-02-07T15:27:38.918Z,10.67
2019-02-07T15:30:11.380Z,11.30
2019-02-07T15:32:39.022Z,10.83
2019-02-07T15:35:11.336Z,10.83
2019-02-07T15:37:38.069Z,12.00
2019-02-07T15:40:10.421Z,11.47
2019-02-07T15:42:37.020Z,10.80
2019-02-07T15:45:09.291Z,10.43
2019-02-07T15:47:35.924Z,11.57
2019-02-07T15:50:07.140Z,12.70
2019-02-07T15:52:36.958Z,11.90
2019-02-07T15:55:04.405Z,13.57
2019-02-07T15:57:31.394Z,13.37
2019-02-07T15:59:58.510Z,14.13
2019-02-07T16:02:25.384Z,15.00
2019-02-07T16:04:52.205Z,15.53
2019-02-07T16:07:18.856Z,13.40
2019-02-07T16:09:45.631Z,13.23
2019-02-07T16:12:12.219Z,12.33
2019-02-07T16:14:39.894Z,12.87
2019-02-07T16:17:06.477Z,13.93
2019-02-07T16:19:33.108Z,13.70
2019-02-07T16:21:59.719Z,12.37
2019-02-07T16:24:26.442Z,13.93
2019-02-07T16:26:53.094Z,12.03
2019-02-07T16:29:21.556Z,13.03
2019-02-07T16:31:48.283Z,12.13
2019-02-07T16:34:29.694Z,13.43
2019-02-07T16:36:56.752Z,10.83
2019-02-07T16:39:23.360Z,12.73
2019-02-07T16:41:50.002Z,11.30
2019-02-07T16:44:16.717Z,11.67
2019-02-07T16:46:43.497Z,10.83
2019-02-07T16:49:10.657Z,11.93
2019-02-07T16:51:37.287Z,10.23
2019-02-07T16:54:04.124Z,11.20
2019-02-07T16:56:30.858Z,10.57
2019-02-07T16:58:57.626Z,10.17
2019-02-07T17:01:24.218Z,10.73
2019-02-07T17:03:50.797Z,11.10
2019-02-07T17:06:17.389Z,10.03
2019-02-07T17:08:44.199Z,9.93
2019-02-07T17:11:10.802Z,9.93
2019-02-07T17:13:38.551Z,10.70
2019-02-07T17:16:05.385Z,9.63
2019-02-07T17:19:28.702Z,10.63
2019-02-07T17:21:55.275Z,10.73
2019-02-07T17:24:22.019Z,10.57
2019-02-07T17:26:48.778Z,11.07
2019-02-07T17:29:15.364Z,11.07
2019-02-07T17:31:42.135Z,11.10
2019-02-07T17:34:08.813Z,12.17
2019-02-07T17:36:35.705Z,13.57
2019-02-07T17:39:05.129Z,12.33
2019-02-07T17:41:32.748Z,14.77
2019-02-07T17:43:59.431Z,13.37
2019-02-07T17:46:25.998Z,13.33
2019-02-07T17:48:53.082Z,14.57
2019-02-07T17:51:23.505Z,16.23
2019-02-07T17:53:50.371Z,17.50
2019-02-07T17:56:17.039Z,15.70
2019-02-07T17:58:43.640Z,15.70
2019-02-07T18:01:10.770Z,13.67
2019-02-07T18:03:37.486Z,17.37
2019-02-07T18:06:04.464Z,17.03
2019-02-07T18:08:31.429Z,17.70
2019-02-07T18:10:58.138Z,16.97
2019-02-07T18:13:24.917Z,17.03
2019-02-07T18:15:51.559Z,17.03
2019-02-07T18:18:18.250Z,17.20
2019-02-07T18:20:45.189Z,19.53
2019-02-07T18:23:11.752Z,17.77
2019-02-07T18:25:38.381Z,17.83
2019-02-07T18:28:06.511Z,19.10
2019-02-07T18:30:33.359Z,18.70
2019-02-07T18:33:00.054Z,19.83
2019-02-07T18:35:26.930Z,18.33
2019-02-07T18:37:54.941Z,20.17
2019-02-07T18:40:26.177Z,19.33
2019-02-07T18:42:52.745Z,19.07
2019-02-07T18:45:20.264Z,21.40
2019-02-07T18:47:48.069Z,20.80
2019-02-07T18:50:20.008Z,18.77
2019-02-07T18:52:46.647Z,19.80
2019-02-07T18:55:13.409Z,20.20
2019-02-07T18:57:40.063Z,20.23
2019-02-07T19:00:12.699Z,21.07
2019-02-07T19:02:39.409Z,20.67
2019-02-07T19:05:11.364Z,20.40
2019-02-07T19:07:38.049Z,21.10
2019-02-07T19:10:17.970Z,20.90
2019-02-07T19:12:46.542Z,19.93
2019-02-07T19:15:18.162Z,19.47
2019-02-07T19:17:45.053Z,22.70
2019-02-07T19:20:15.448Z,21.63
2019-02-07T19:22:42.133Z,19.17
2019-02-07T19:25:09.642Z,21.10
2019-02-07T19:27:36.688Z,21.90
2019-02-07T19:30:09.197Z,19.63
2019-02-07T19:32:36.058Z,20.30
2019-02-07T19:35:07.253Z,19.23
2019-02-07T19:37:34.064Z,20.40
2019-02-07T19:40:01.026Z,19.23
2019-02-07T19:42:28.474Z,20.93
2019-02-07T19:44:55.228Z,20.87
2019-02-07T19:47:21.910Z,21.33
2019-02-07T19:49:49.043Z,22.33
2019-02-07T19:52:17.388Z,20.50
2019-02-07T19:54:44.464Z,21.50
2019-02-07T19:57:11.414Z,20.70
2019-02-07T19:59:38.043Z,22.10
2019-02-07T20:02:05.097Z,21.30
2019-02-07T20:04:33.841Z,19.33
2019-02-07T20:07:00.467Z,20.10
2019-02-07T20:09:27.398Z,20.03
2019-02-07T20:11:57.380Z,20.17
2019-02-07T20:14:27.306Z,19.30
2019-02-07T20:16:54.460Z,19.47
2019-02-07T20:19:23.359Z,21.07
2019-02-07T20:21:50.972Z,19.73
2019-02-07T20:24:19.338Z,20.47
2019-02-07T20:26:47.287Z,18.30
2019-02-07T20:29:13.971Z,19.83
2019-02-07T20:31:41.361Z,21.10
2019-02-07T20:34:08.446Z,21.00
2019-02-07T20:36:35.025Z,20.50
2019-02-07T20:39:01.763Z,19.90
2019-02-07T20:41:33.392Z,21.00
2019-02-07T20:44:00.061Z,20.43
2019-02-07T20:46:27.174Z,20.73
2019-02-07T20:48:54.193Z,20.47
2019-02-07T20:51:20.764Z,19.50
2019-02-07T20:53:47.345Z,22.20
2019-02-07T20:56:13.980Z,20.20
2019-02-07T20:58:40.664Z,20.33
2019-02-07T21:01:07.363Z,21.43
2019-02-07T21:03:33.965Z,20.53
2019-02-07T21:06:00.549Z,24.00
2019-02-07T21:08:27.760Z,22.17
2019-02-07T21:10:54.560Z,24.83
2019-02-07T21:13:21.102Z,21.73
2019-02-07T21:15:47.764Z,23.43
2019-02-07T21:18:14.900Z,24.70
2019-02-07T21:20:41.706Z,25.00
2019-02-07T21:23:08.333Z,25.77
2019-02-07T21:25:40.639Z,26.10
2019-02-07T21:28:08.071Z,25.00
2019-02-07T21:30:34.825Z,24.70
2019-02-07T21:33:01.610Z,24.97
2019-02-07T21:35:30.493Z,24.57
2019-02-07T21:37:57.227Z,26.37
2019-02-07T21:40:28.866Z,25.30
2019-02-07T21:42:57.637Z,28.40
2019-02-07T21:45:24.235Z,23.90
2019-02-07T21:47:51.292Z,24.00
2019-02-07T21:50:22.462Z,24.60
2019-02-07T21:52:49.297Z,23.40
2019-02-07T21:55:19.443Z,24.43
2019-02-07T21:57:46.024Z,24.93
2019-02-07T22:00:17.839Z,26.13
2019-02-07T22:02:44.839Z,24.30
2019-02-07T22:05:11.475Z,24.93
2019-02-07T22:07:38.103Z,25.53
2019-02-07T22:10:09.713Z,23.80
2019-02-07T22:12:36.279Z,25.10
2019-02-07T22:15:08.377Z,22.40
2019-02-07T22:17:34.947Z,23.57
2019-02-07T22:20:07.400Z,23.83
2019-02-07T22:22:34.103Z,25.67
2019-02-07T22:25:00.724Z,24.50
2019-02-07T22:27:27.356Z,27.47
2019-02-07T22:29:53.920Z,26.57
2019-02-07T22:32:20.519Z,26.30
2019-02-07T22:34:47.075Z,26.93
2019-02-07T22:37:13.663Z,28.23
2019-02-07T22:39:40.550Z,28.30
2019-02-07T22:42:07.303Z,28.17
2019-02-07T22:44:34.601Z,27.37
2019-02-07T22:47:01.359Z,27.70
2019-02-07T22:49:27.986Z,27.67
2019-02-07T22:52:12.946Z,28.77
2019-02-07T22:54:41.064Z,28.20
2019-02-07T22:57:07.630Z,27.00
2019-02-07T22:59:34.286Z,27.73
2019-02-07T23:02:02.600Z,24.47
2019-02-07T23:04:29.386Z,25.67
2019-02-07T23:06:56.078Z,28.17
2019-02-07T23:09:22.639Z,28.13
2019-02-07T23:11:49.588Z,25.97
2019-02-07T23:14:16.400Z,26.93
2019-02-07T23:16:43.275Z,26.17
2019-02-07T23:19:11.031Z,24.80
2019-02-07T23:21:37.989Z,26.03
2019-02-07T23:25:01.228Z,25.00
2019-02-07T23:27:27.965Z,23.53
2019-02-07T23:29:54.615Z,25.30
2019-02-07T23:32:21.382Z,24.10
2019-02-07T23:34:48.298Z,25.63
2019-02-07T23:37:14.871Z,25.63
2019-02-07T23:39:41.446Z,25.23
2019-02-07T23:42:08.150Z,24.37
2019-02-07T23:44:34.964Z,25.53
2019-02-07T23:47:01.583Z,24.67
2019-02-07T23:49:28.160Z,24.67
2019-02-07T23:51:54.729Z,26.00
2019-02-07T23:55:11.978Z,25.90
2019-02-07T23:57:38.839Z,25.03
